createdAt,value
2022-11-15T00:00:59.791Z,94144.66
2022-11-15T00:03:45.332Z,94142.84
2022-11-15T00:06:30.713Z,94142.56
2022-11-15T00:09:15.843Z,94137.63
2022-11-15T00:12:00.626Z,94129.34
2022-11-15T00:14:45.249Z,94134.81
2022-11-15T00:17:30.625Z,94135.59
2022-11-15T00:20:15.508Z,94135.13
2022-11-15T00:23:00.640Z,94135.69
2022-11-15T00:25:45.634Z,94140.88
2022-11-15T00:28:30.592Z,94138.84
2022-11-15T00:31:15.867Z,94132.69
2022-11-15T00:34:00.498Z,94131.69
2022-11-15T00:36:45.561Z,94119.78
2022-11-15T00:39:30.514Z,94122.63
2022-11-15T00:42:15.308Z,94115.13
2022-11-15T00:45:00.425Z,94107.81
2022-11-15T00:47:47.186Z,94105.69
2022-11-15T00:50:32.163Z,94101.28
2022-11-15T00:53:17.682Z,94102.59
2022-11-15T00:56:04.598Z,94112.44
2022-11-15T00:58:49.611Z,94116.66
2022-11-15T01:01:34.594Z,94105.78
2022-11-15T01:04:19.841Z,94105.28
2022-11-15T01:07:04.828Z,94102.00
2022-11-15T01:09:50.108Z,94101.50
2022-11-15T01:12:34.890Z,94092.44
2022-11-15T01:15:19.768Z,94088.88
2022-11-15T01:18:04.618Z,94082.91
2022-11-15T01:20:49.584Z,94089.91
2022-11-15T01:23:35.310Z,94079.59
2022-11-15T01:26:20.113Z,94078.81
2022-11-15T01:29:05.068Z,94087.88
2022-11-15T01:31:50.178Z,94081.44
2022-11-15T01:34:35.249Z,94075.53
2022-11-15T01:37:20.021Z,94067.25
2022-11-15T01:40:05.674Z,94070.91
2022-11-15T01:42:50.654Z,94066.78
2022-11-15T01:45:35.393Z,94067.34
2022-11-15T01:48:21.821Z,94057.59
2022-11-15T01:51:12.735Z,94056.03
2022-11-15T01:54:01.981Z,94058.22
2022-11-15T01:56:55.724Z,94050.50
2022-11-15T01:59:44.320Z,94049.03
2022-11-15T02:02:29.143Z,94043.16
2022-11-15T02:05:13.947Z,94042.22
2022-11-15T02:08:00.690Z,94046.22
2022-11-15T02:10:47.719Z,94043.19
2022-11-15T02:13:33.175Z,94033.25
2022-11-15T02:16:39.939Z,94036.88
2022-11-15T02:19:34.297Z,94041.94
2022-11-15T02:22:45.786Z,94047.75
2022-11-15T02:25:39.777Z,94045.75
2022-11-15T02:28:27.798Z,94036.00
2022-11-15T02:31:12.434Z,94027.50
2022-11-15T02:34:03.212Z,94021.06
2022-11-15T02:36:56.699Z,94023.13
2022-11-15T02:39:51.428Z,94018.97
2022-11-15T02:43:15.087Z,94023.13
2022-11-15T02:46:07.463Z,94016.38
2022-11-15T02:48:52.583Z,94011.50
2022-11-15T02:51:37.627Z,94011.25
2022-11-15T02:54:24.112Z,94013.09
2022-11-15T02:57:13.597Z,93995.78
2022-11-15T02:59:58.293Z,94002.53
2022-11-15T03:03:01.799Z,94008.56
2022-11-15T03:05:52.674Z,94000.56
2022-11-15T03:09:00.522Z,93998.53
2022-11-15T03:11:49.410Z,93992.34
2022-11-15T03:14:38.349Z,93990.88
2022-11-15T03:17:43.728Z,93996.38
2022-11-15T03:20:28.963Z,94000.28
2022-11-15T03:23:14.263Z,94004.97
2022-11-15T03:26:00.489Z,94003.97
2022-11-15T03:28:49.720Z,94000.16
2022-11-15T03:31:50.473Z,93999.66
2022-11-15T03:34:42.378Z,93995.88
2022-11-15T03:37:34.797Z,94000.03
2022-11-15T03:40:22.788Z,93997.50
2022-11-15T03:43:11.303Z,93998.28
2022-11-15T03:46:16.202Z,93991.59
2022-11-15T03:49:09.127Z,93994.50
2022-11-15T03:51:54.206Z,93997.13
2022-11-15T03:54:48.395Z,93988.38
2022-11-15T03:57:33.210Z,93988.97
2022-11-15T04:00:18.188Z,93993.06
2022-11-15T04:03:03.286Z,93996.94
2022-11-15T04:05:48.149Z,93997.75
2022-11-15T04:08:32.773Z,93991.03
2022-11-15T04:11:17.524Z,93981.19
2022-11-15T04:14:02.248Z,93985.84
2022-11-15T04:16:47.135Z,93981.19
2022-11-15T04:19:50.665Z,93973.97
2022-11-15T04:22:54.497Z,93976.31
2022-11-15T04:25:39.816Z,93971.97
2022-11-15T04:28:24.842Z,93976.63
2022-11-15T04:31:09.667Z,93977.69
2022-11-15T04:33:54.844Z,93974.81
2022-11-15T04:36:58.488Z,93970.16
2022-11-15T04:39:44.113Z,93968.34
2022-11-15T04:42:29.025Z,93959.56
2022-11-15T04:45:13.932Z,93962.13
2022-11-15T04:47:58.703Z,93957.22
2022-11-15T04:50:43.390Z,93952.53
2022-11-15T04:53:28.279Z,93954.31
2022-11-15T04:56:13.244Z,93951.19
2022-11-15T04:58:58.078Z,93949.09
2022-11-15T05:01:45.045Z,93951.19
2022-11-15T05:04:30.160Z,93945.97
2022-11-15T05:07:15.146Z,93947.72
2022-11-15T05:10:00.412Z,93941.75
2022-11-15T05:12:45.207Z,93948.41
2022-11-15T05:15:29.922Z,93938.03
2022-11-15T05:18:17.235Z,93937.97
2022-11-15T05:21:10.524Z,93939.44
2022-11-15T05:23:55.758Z,93943.31
2022-11-15T05:26:40.339Z,93936.28
2022-11-15T05:29:25.026Z,93932.13
2022-11-15T05:32:10.382Z,93924.84
2022-11-15T05:34:55.556Z,93934.66
2022-11-15T05:37:41.160Z,93933.06
2022-11-15T05:40:26.747Z,93929.69
2022-11-15T05:43:11.539Z,93921.44
2022-11-15T05:45:57.679Z,93921.44
2022-11-15T05:48:44.268Z,93922.47
2022-11-15T05:51:30.128Z,93918.06
2022-11-15T05:54:15.540Z,93914.69
2022-11-15T05:57:01.038Z,93913.94
2022-11-15T05:59:45.800Z,93915.25
2022-11-15T06:02:30.731Z,93915.53
2022-11-15T06:05:15.641Z,93909.78
2022-11-15T06:08:00.546Z,93915.75
2022-11-15T06:10:45.283Z,93913.16
2022-11-15T06:13:30.481Z,93911.09
2022-11-15T06:16:15.972Z,93906.47
2022-11-15T06:19:00.625Z,93911.94
2022-11-15T06:21:45.588Z,93910.91
2022-11-15T06:24:30.167Z,93911.41
2022-11-15T06:27:15.001Z,93911.94
2022-11-15T06:29:59.565Z,93913.28
2022-11-15T06:32:44.320Z,93914.31
2022-11-15T06:35:29.516Z,93910.94
2022-11-15T06:38:14.434Z,93917.13
2022-11-15T06:41:06.500Z,93920.19
2022-11-15T06:43:51.607Z,93914.47
2022-11-15T06:46:36.668Z,93913.16
2022-11-15T06:49:21.946Z,93914.69
2022-11-15T06:52:06.958Z,93914.94
2022-11-15T06:54:51.944Z,93915.91
2022-11-15T06:57:37.384Z,93920.31
2022-11-15T07:00:23.096Z,93921.09
2022-11-15T07:03:08.154Z,93925.50
2022-11-15T07:05:57.404Z,93918.78
2022-11-15T07:08:43.264Z,93923.13
2022-11-15T07:11:28.051Z,93920.47
2022-11-15T07:14:12.692Z,93922.50
2022-11-15T07:16:57.522Z,93924.56
2022-11-15T07:19:42.224Z,93913.63
2022-11-15T07:22:26.944Z,93921.63
2022-11-15T07:25:11.879Z,93913.56
2022-11-15T07:28:00.747Z,93900.84
2022-11-15T07:30:46.143Z,93901.06
2022-11-15T07:33:31.057Z,93908.47
2022-11-15T07:36:16.161Z,93903.50
2022-11-15T07:39:00.911Z,93909.66
2022-11-15T07:41:47.247Z,93905.47
2022-11-15T07:44:32.346Z,93905.41
2022-11-15T07:47:17.041Z,93894.72
2022-11-15T07:50:02.113Z,93895.91
2022-11-15T07:52:47.116Z,93893.72
2022-11-15T07:55:32.082Z,93886.34
2022-11-15T07:58:16.903Z,93889.34
2022-11-15T08:01:09.064Z,93889.28
2022-11-15T08:03:54.187Z,93887.66
2022-11-15T08:06:38.991Z,93879.03
2022-11-15T08:09:23.635Z,93882.53
2022-11-15T08:12:08.586Z,93871.47
2022-11-15T08:14:53.177Z,93871.03
2022-11-15T08:17:37.983Z,93860.47
2022-11-15T08:20:22.811Z,93848.56
2022-11-15T08:23:08.673Z,93840.00
2022-11-15T08:25:53.425Z,93836.91
2022-11-15T08:28:38.362Z,93831.97
2022-11-15T08:31:23.155Z,93837.84
2022-11-15T08:34:07.912Z,93833.03
2022-11-15T08:36:52.863Z,93832.34
2022-11-15T08:39:38.808Z,93827.31
2022-11-15T08:42:23.595Z,93828.50
2022-11-15T08:45:09.053Z,93829.03
2022-11-15T08:47:54.735Z,93826.69
2022-11-15T08:50:40.305Z,93826.97
2022-11-15T08:53:25.279Z,93828.28
2022-11-15T08:56:11.043Z,93832.19
2022-11-15T08:58:56.051Z,93833.31
2022-11-15T09:01:40.872Z,93840.59
2022-11-15T09:04:25.617Z,93837.13
2022-11-15T09:07:11.765Z,93836.00
2022-11-15T09:09:56.898Z,93830.69
2022-11-15T09:12:41.595Z,93830.59
2022-11-15T09:15:26.420Z,93824.97
2022-11-15T09:18:11.039Z,93817.53
2022-11-15T09:20:57.484Z,93816.53
2022-11-15T09:23:42.523Z,93807.50
2022-11-15T09:26:27.486Z,93816.72
2022-11-15T09:29:12.422Z,93812.88
2022-11-15T09:31:57.133Z,93813.66
2022-11-15T09:34:41.950Z,93820.28
2022-11-15T09:37:26.804Z,93821.50
2022-11-15T09:40:17.489Z,93804.28
2022-11-15T09:43:21.083Z,93806.88
2022-11-15T09:46:24.413Z,93798.88
2022-11-15T09:49:10.243Z,93797.47
2022-11-15T09:51:52.395Z,93793.81
2022-11-15T09:54:52.773Z,93795.22
2022-11-15T09:57:23.348Z,93801.25
2022-11-15T10:00:38.727Z,93808.59
2022-11-15T10:02:54.658Z,93793.09
2022-11-15T10:05:23.000Z,93783.09
2022-11-15T10:08:13.874Z,93780.91
2022-11-15T10:10:41.710Z,93772.59
2022-11-15T10:13:13.315Z,93773.00
2022-11-15T10:15:39.735Z,93772.59
2022-11-15T10:18:14.296Z,93774.47
2022-11-15T10:20:47.327Z,93771.88
2022-11-15T10:23:15.350Z,93759.31
2022-11-15T10:25:41.957Z,93762.84
2022-11-15T10:28:14.443Z,93764.38
2022-11-15T10:30:52.271Z,93763.47
2022-11-15T10:33:30.681Z,93762.69
2022-11-15T10:36:09.046Z,93751.34
2022-11-15T10:38:50.703Z,93740.13
2022-11-15T10:41:30.469Z,93733.19
2022-11-15T10:44:02.892Z,93727.22
2022-11-15T10:46:46.139Z,93726.91
2022-11-15T10:49:17.486Z,93727.63
2022-11-15T10:51:46.992Z,93727.44
2022-11-15T10:54:19.946Z,93720.19
2022-11-15T10:56:49.971Z,93726.75
2022-11-15T10:59:19.126Z,93716.97
2022-11-15T11:01:49.017Z,93721.91
2022-11-15T11:04:15.453Z,93727.53
2022-11-15T11:06:52.029Z,93731.56
2022-11-15T11:09:24.296Z,93728.41
2022-11-15T11:11:52.958Z,93720.81
2022-11-15T11:14:28.254Z,93724.19
2022-11-15T11:17:03.969Z,93721.25
2022-11-15T11:19:30.273Z,93723.88
2022-11-15T11:22:16.878Z,93719.34
2022-11-15T11:24:53.491Z,93709.19
2022-11-15T11:27:31.884Z,93712.63
2022-11-15T11:30:07.283Z,93704.47
2022-11-15T11:32:33.607Z,93701.66
2022-11-15T11:35:20.192Z,93695.94
2022-11-15T11:38:01.487Z,93687.94
2022-11-15T11:40:27.835Z,93678.59
2022-11-15T11:43:14.509Z,93672.22
2022-11-15T11:45:53.018Z,93669.72
2022-11-15T11:48:36.268Z,93669.31
2022-11-15T11:51:13.521Z,93658.75
2022-11-15T11:53:53.856Z,93650.91
2022-11-15T11:56:24.153Z,93652.53
2022-11-15T11:58:51.564Z,93662.47
2022-11-15T12:01:20.673Z,93655.84
2022-11-15T12:03:51.985Z,93661.66
2022-11-15T12:06:30.328Z,93659.88
2022-11-15T12:09:03.213Z,93666.50
2022-11-15T12:11:29.527Z,93666.41
2022-11-15T12:14:00.936Z,93674.59
2022-11-15T12:16:28.880Z,93669.41
2022-11-15T12:18:56.455Z,93668.28
2022-11-15T12:21:41.261Z,93667.09
2022-11-15T12:24:17.592Z,93658.53
2022-11-15T12:26:53.371Z,93664.56
2022-11-15T12:29:19.880Z,93656.78
2022-11-15T12:32:58.582Z,93653.84
2022-11-15T12:35:35.612Z,93652.19
2022-11-15T12:38:02.331Z,93646.16
2022-11-15T12:40:31.644Z,93643.44
2022-11-15T12:43:14.773Z,93639.44
2022-11-15T12:45:43.785Z,93638.81
2022-11-15T12:48:19.096Z,93638.22
2022-11-15T12:50:51.587Z,93636.69
2022-11-15T12:53:24.169Z,93639.63
2022-11-15T12:56:16.746Z,93630.19
2022-11-15T12:58:44.739Z,93630.75
2022-11-15T13:01:11.738Z,93630.66
2022-11-15T13:04:16.234Z,93621.63
2022-11-15T13:06:56.862Z,93619.72
2022-11-15T13:09:29.078Z,93615.75
2022-11-15T13:11:57.515Z,93621.78
2022-11-15T13:14:48.967Z,93621.69
2022-11-15T13:17:23.524Z,93610.72
2022-11-15T13:19:59.803Z,93616.31
2022-11-15T13:23:00.032Z,93613.25
2022-11-15T13:25:49.758Z,93623.19
2022-11-15T13:28:16.121Z,93623.94
2022-11-15T13:30:48.597Z,93621.31
2022-11-15T13:33:18.788Z,93615.75
2022-11-15T13:35:55.243Z,93622.59
2022-11-15T13:38:34.122Z,93617.75
2022-11-15T13:41:21.840Z,93615.66
2022-11-15T13:43:50.083Z,93609.28
2022-11-15T13:46:29.759Z,93614.44
2022-11-15T13:49:05.469Z,93608.00
2022-11-15T13:51:39.433Z,93607.00
2022-11-15T13:54:24.462Z,93596.97
2022-11-15T13:56:56.713Z,93589.25
2022-11-15T13:59:27.519Z,93589.66
2022-11-15T14:01:56.199Z,93586.28
2022-11-15T14:04:26.190Z,93586.84
2022-11-15T14:06:58.732Z,93589.66
2022-11-15T14:09:36.056Z,93586.56
2022-11-15T14:12:22.714Z,93585.28
2022-11-15T14:14:49.466Z,93577.94
2022-11-15T14:17:35.128Z,93581.41
2022-11-15T14:20:20.423Z,93578.88
2022-11-15T14:22:58.616Z,93575.56
2022-11-15T14:25:28.051Z,93570.72
2022-11-15T14:28:13.301Z,93576.47
2022-11-15T14:30:41.502Z,93560.41
2022-11-15T14:33:23.828Z,93554.50
2022-11-15T14:35:52.031Z,93552.88
2022-11-15T14:38:18.625Z,93546.81
2022-11-15T14:40:45.248Z,93552.41
2022-11-15T14:43:12.741Z,93556.16
2022-11-15T14:45:40.098Z,93547.16
2022-11-15T14:48:07.010Z,93545.34
2022-11-15T14:50:34.868Z,93542.47
2022-11-15T14:53:01.382Z,93537.59
2022-11-15T14:55:32.557Z,93540.25
2022-11-15T14:57:59.570Z,93536.16
2022-11-15T15:00:29.737Z,93532.50
2022-11-15T15:02:59.173Z,93531.00
2022-11-15T15:05:36.690Z,93523.97
2022-11-15T15:08:04.622Z,93518.97
2022-11-15T15:10:41.515Z,93520.19
2022-11-15T15:13:23.208Z,93506.09
2022-11-15T15:15:51.503Z,93517.63
2022-11-15T15:18:18.363Z,93522.09
2022-11-15T15:20:54.287Z,93517.03
2022-11-15T15:23:21.376Z,93516.88
2022-11-15T15:25:49.895Z,93502.19
2022-11-15T15:28:16.377Z,93503.09
2022-11-15T15:30:42.909Z,93509.41
2022-11-15T15:33:09.319Z,93504.78
2022-11-15T15:35:36.063Z,93497.25
2022-11-15T15:38:03.152Z,93504.31
2022-11-15T15:40:32.654Z,93498.50
2022-11-15T15:43:00.312Z,93501.44
2022-11-15T15:45:28.500Z,93499.44
2022-11-15T15:47:55.343Z,93498.22
2022-11-15T15:50:28.986Z,93490.56
2022-11-15T15:52:59.108Z,93493.00
2022-11-15T15:55:26.482Z,93485.19
2022-11-15T15:57:53.314Z,93482.91
2022-11-15T16:00:21.000Z,93476.91
2022-11-15T16:02:47.868Z,93470.16
2022-11-15T16:05:14.393Z,93467.09
2022-11-15T16:07:43.971Z,93462.69
2022-11-15T16:10:19.542Z,93463.44
2022-11-15T16:12:47.360Z,93465.88
2022-11-15T16:15:13.863Z,93454.53
2022-11-15T16:17:44.892Z,93458.53
2022-11-15T16:20:41.951Z,93451.47
2022-11-15T16:23:10.594Z,93456.25
2022-11-15T16:25:48.938Z,93452.88
2022-11-15T16:28:23.700Z,93458.06
2022-11-15T16:30:59.891Z,93446.59
2022-11-15T16:33:26.298Z,93453.47
2022-11-15T16:35:52.807Z,93450.09
2022-11-15T16:38:19.444Z,93455.78
2022-11-15T16:40:46.016Z,93444.75
2022-11-15T16:43:12.590Z,93449.19
2022-11-15T16:45:39.145Z,93440.16
2022-11-15T16:48:05.686Z,93442.00
2022-11-15T16:50:39.731Z,93447.22
2022-11-15T16:53:06.519Z,93445.81
2022-11-15T16:55:33.076Z,93434.78
2022-11-15T16:57:59.547Z,93439.88
2022-11-15T17:00:25.987Z,93423.47
2022-11-15T17:02:53.854Z,93430.19
2022-11-15T17:05:22.641Z,93439.22
2022-11-15T17:07:52.231Z,93439.88
2022-11-15T17:10:18.747Z,93431.41
2022-11-15T17:12:45.331Z,93431.56
2022-11-15T17:15:13.120Z,93429.28
2022-11-15T17:17:40.740Z,93430.81
2022-11-15T17:20:13.415Z,93431.91
2022-11-15T17:22:39.810Z,93421.94
2022-11-15T17:25:06.651Z,93418.41
2022-11-15T17:27:33.022Z,93416.72
2022-11-15T17:29:59.408Z,93430.06
2022-11-15T17:32:25.875Z,93409.84
2022-11-15T17:34:52.311Z,93401.72
2022-11-15T17:37:18.730Z,93400.19
2022-11-15T17:39:45.115Z,93405.53
2022-11-15T17:42:11.673Z,93401.56
2022-11-15T17:44:38.092Z,93400.03
2022-11-15T17:47:04.609Z,93396.19
2022-11-15T17:49:31.118Z,93395.88
2022-11-15T17:51:57.568Z,93397.44
2022-11-15T17:54:24.004Z,93381.81
2022-11-15T17:56:50.439Z,93379.22
2022-11-15T17:59:21.175Z,93380.75
2022-11-15T18:01:48.020Z,93381.34
2022-11-15T18:04:15.280Z,93382.56
2022-11-15T18:06:42.049Z,93386.25
2022-11-15T18:09:08.789Z,93381.03
2022-11-15T18:11:41.334Z,93378.44
2022-11-15T18:14:12.504Z,93380.28
2022-11-15T18:16:40.200Z,93377.69
2022-11-15T18:19:11.407Z,93375.81
2022-11-15T18:21:55.954Z,93368.50
2022-11-15T18:24:32.048Z,93360.22
2022-11-15T18:26:59.884Z,93360.97
2022-11-15T18:29:26.593Z,93350.41
2022-11-15T18:31:57.479Z,93347.38
2022-11-15T18:34:25.821Z,93345.69
2022-11-15T18:36:53.161Z,93345.94
2022-11-15T18:39:20.170Z,93339.84
2022-11-15T18:41:46.988Z,93339.22
2022-11-15T18:44:15.795Z,93340.44
2022-11-15T18:46:42.875Z,93340.28
2022-11-15T18:49:10.502Z,93339.66
2022-11-15T18:51:37.893Z,93335.53
2022-11-15T18:54:04.420Z,93334.44
2022-11-15T18:56:32.114Z,93324.19
2022-11-15T18:59:00.651Z,93340.41
2022-11-15T19:01:33.853Z,93320.84
2022-11-15T19:04:07.880Z,93324.81
2022-11-15T19:06:38.443Z,93320.22
2022-11-15T19:09:05.083Z,93319.16
2022-11-15T19:11:35.483Z,93316.25
2022-11-15T19:14:04.695Z,93322.53
2022-11-15T19:16:33.387Z,93325.44
2022-11-15T19:19:05.452Z,93317.78
2022-11-15T19:21:32.224Z,93314.88
2022-11-15T19:24:00.524Z,93304.91
2022-11-15T19:26:28.417Z,93304.00
2022-11-15T19:28:57.037Z,93311.63
2022-11-15T19:31:24.783Z,93305.50
2022-11-15T19:33:52.703Z,93306.59
2022-11-15T19:36:28.100Z,93293.41
2022-11-15T19:38:55.806Z,93295.84
2022-11-15T19:41:24.217Z,93290.03
2022-11-15T19:43:51.343Z,93297.25
2022-11-15T19:46:23.391Z,93292.97
2022-11-15T19:48:50.942Z,93286.69
2022-11-15T19:51:21.535Z,93282.28
2022-11-15T19:53:59.770Z,93285.63
2022-11-15T19:56:26.155Z,93282.88
2022-11-15T19:58:54.333Z,93285.47
2022-11-15T20:01:28.297Z,93292.81
2022-11-15T20:03:58.496Z,93296.47
2022-11-15T20:06:33.323Z,93291.00
2022-11-15T20:09:00.134Z,93293.88
2022-11-15T20:11:26.891Z,93285.03
2022-11-15T20:13:58.472Z,93297.09
2022-11-15T20:16:25.666Z,93283.50
2022-11-15T20:18:53.182Z,93272.03
2022-11-15T20:21:20.170Z,93266.84
2022-11-15T20:23:47.760Z,93257.94
2022-11-15T20:26:15.183Z,93257.06
2022-11-15T20:28:41.787Z,93254.47
2022-11-15T20:31:09.598Z,93255.22
2022-11-15T20:33:36.139Z,93243.91
2022-11-15T20:36:07.770Z,93243.91
2022-11-15T20:38:34.898Z,93235.66
2022-11-15T20:41:01.719Z,93235.16
2022-11-15T20:43:28.170Z,93241.91
2022-11-15T20:45:54.964Z,93230.59
2022-11-15T20:48:21.872Z,93222.94
2022-11-15T20:50:48.587Z,93205.34
2022-11-15T20:53:17.800Z,93215.91
2022-11-15T20:55:51.019Z,93221.59
2022-11-15T20:58:17.988Z,93224.47
2022-11-15T21:00:45.598Z,93222.66
2022-11-15T21:03:13.589Z,93213.78
2022-11-15T21:05:42.413Z,93211.19
2022-11-15T21:08:10.215Z,93206.59
2022-11-15T21:10:55.788Z,93204.00
2022-11-15T21:13:22.669Z,93199.84
2022-11-15T21:15:49.250Z,93200.31
2022-11-15T21:18:16.149Z,93199.25
2022-11-15T21:20:42.716Z,93199.25
2022-11-15T21:23:10.059Z,93185.81
2022-11-15T21:25:36.564Z,93186.25
2022-11-15T21:28:03.297Z,93174.78
2022-11-15T21:30:30.247Z,93173.72
2022-11-15T21:32:56.834Z,93171.13
2022-11-15T21:35:23.797Z,93163.31
2022-11-15T21:37:56.090Z,93160.28
2022-11-15T21:40:23.467Z,93165.16
2022-11-15T21:42:49.945Z,93157.50
2022-11-15T21:45:16.458Z,93160.44
2022-11-15T21:47:46.105Z,93165.47
2022-11-15T21:50:13.476Z,93156.75
2022-11-15T21:52:40.554Z,93153.84
2022-11-15T21:55:07.613Z,93159.97
2022-11-15T21:57:34.056Z,93164.84
2022-11-15T22:00:18.977Z,93159.50
2022-11-15T22:02:45.391Z,93156.13
2022-11-15T22:05:11.904Z,93164.84
2022-11-15T22:07:38.407Z,93160.44
2022-11-15T22:10:05.379Z,93154.63
2022-11-15T22:12:31.850Z,93148.50
2022-11-15T22:14:58.338Z,93142.41
2022-11-15T22:17:44.857Z,93139.19
2022-11-15T22:20:37.777Z,93127.72
2022-11-15T22:22:59.512Z,93125.72
2022-11-15T22:25:26.387Z,93125.09
2022-11-15T22:27:53.344Z,93126.19
2022-11-15T22:30:20.592Z,93122.06
2022-11-15T22:32:47.160Z,93123.13
2022-11-15T22:35:13.980Z,93129.69
2022-11-15T22:37:40.459Z,93120.69
2022-11-15T22:40:07.658Z,93109.84
2022-11-15T22:42:34.389Z,93112.44
2022-11-15T22:45:00.827Z,93106.47
2022-11-15T22:47:27.322Z,93104.19
2022-11-15T22:49:53.776Z,93108.16
2022-11-15T22:52:20.233Z,93100.97
2022-11-15T22:54:46.765Z,93096.41
2022-11-15T22:57:13.820Z,93091.66
2022-11-15T22:59:41.106Z,93092.72
2022-11-15T23:02:07.680Z,93089.06
2022-11-15T23:04:34.152Z,93078.81
2022-11-15T23:07:00.701Z,93075.13
2022-11-15T23:09:27.325Z,93083.41
2022-11-15T23:12:12.288Z,93081.41
2022-11-15T23:14:38.786Z,93084.78
2022-11-15T23:17:05.279Z,93080.19
2022-11-15T23:19:31.724Z,93079.88
2022-11-15T23:22:16.353Z,93078.06
2022-11-15T23:24:42.769Z,93080.50
2022-11-15T23:27:09.219Z,93076.84
2022-11-15T23:29:57.112Z,93079.72
2022-11-15T23:32:42.438Z,93073.31
2022-11-15T23:35:09.185Z,93066.13
2022-11-15T23:37:35.623Z,93070.56
2022-11-15T23:40:02.098Z,93068.72
2022-11-15T23:42:28.584Z,93073.75
2022-11-15T23:44:55.060Z,93070.41
2022-11-15T23:47:21.652Z,93062.75
2022-11-15T23:49:48.232Z,93076.69
2022-11-15T23:52:16.030Z,93076.69
2022-11-15T23:54:43.148Z,93063.69
2022-11-15T23:57:11.917Z,93071.63
2022-11-15T23:59:40.009Z,93074.25
